sensor_id;sensor_type;location;lat;lon;timestamp;P1;durP1;ratioP1;P2;durP2;ratioP2
62582;SDS011;48641;51.676;5.808;2023-06-19T00:00:16;7.60;;;4.55;;
62582;SDS011;48641;51.676;5.808;2023-06-19T00:02:43;7.47;;;4.70;;
62582;SDS011;48641;51.676;5.808;2023-06-19T00:05:09;7.75;;;4.97;;
62582;SDS011;48641;51.676;5.808;2023-06-19T00:07:38;7.15;;;4.45;;
62582;SDS011;48641;51.676;5.808;2023-06-19T00:10:04;8.45;;;4.30;;
62582;SDS011;48641;51.676;5.808;2023-06-19T00:12:31;7.43;;;4.40;;
62582;SDS011;48641;51.676;5.808;2023-06-19T00:14:56;6.88;;;4.45;;
62582;SDS011;48641;51.676;5.808;2023-06-19T00:17:22;7.68;;;4.85;;
62582;SDS011;48641;51.676;5.808;2023-06-19T00:19:51;7.13;;;4.65;;
62582;SDS011;48641;51.676;5.808;2023-06-19T00:22:17;7.82;;;4.53;;
62582;SDS011;48641;51.676;5.808;2023-06-19T00:24:43;7.20;;;4.20;;
62582;SDS011;48641;51.676;5.808;2023-06-19T00:27:09;8.32;;;4.50;;
62582;SDS011;48641;51.676;5.808;2023-06-19T00:29:34;7.32;;;4.30;;
62582;SDS011;48641;51.676;5.808;2023-06-19T00:32:03;7.63;;;4.30;;
62582;SDS011;48641;51.676;5.808;2023-06-19T00:34:29;7.30;;;4.05;;
62582;SDS011;48641;51.676;5.808;2023-06-19T00:36:56;7.07;;;4.30;;
62582;SDS011;48641;51.676;5.808;2023-06-19T00:39:27;6.93;;;4.07;;
62582;SDS011;48641;51.676;5.808;2023-06-19T00:41:52;7.53;;;4.60;;
62582;SDS011;48641;51.676;5.808;2023-06-19T00:44:18;7.25;;;4.55;;
62582;SDS011;48641;51.676;5.808;2023-06-19T00:46:44;7.30;;;4.57;;
62582;SDS011;48641;51.676;5.808;2023-06-19T00:49:10;7.07;;;4.13;;
62582;SDS011;48641;51.676;5.808;2023-06-19T00:51:37;7.15;;;4.18;;
62582;SDS011;48641;51.676;5.808;2023-06-19T00:54:03;6.78;;;4.20;;
62582;SDS011;48641;51.676;5.808;2023-06-19T00:56:29;7.25;;;4.50;;
62582;SDS011;48641;51.676;5.808;2023-06-19T00:58:55;7.45;;;4.43;;
62582;SDS011;48641;51.676;5.808;2023-06-19T01:01:21;6.93;;;4.18;;
62582;SDS011;48641;51.676;5.808;2023-06-19T01:03:49;7.75;;;4.50;;
62582;SDS011;48641;51.676;5.808;2023-06-19T01:06:20;6.93;;;4.07;;
62582;SDS011;48641;51.676;5.808;2023-06-19T01:09:10;7.32;;;4.38;;
62582;SDS011;48641;51.676;5.808;2023-06-19T01:11:42;7.20;;;4.20;;
62582;SDS011;48641;51.676;5.808;2023-06-19T01:14:13;7.65;;;4.00;;
62582;SDS011;48641;51.676;5.808;2023-06-19T01:16:44;6.88;;;4.05;;
62582;SDS011;48641;51.676;5.808;2023-06-19T01:19:10;6.63;;;3.90;;
62582;SDS011;48641;51.676;5.808;2023-06-19T01:21:45;6.90;;;4.07;;
62582;SDS011;48641;51.676;5.808;2023-06-19T01:24:11;7.47;;;4.15;;
62582;SDS011;48641;51.676;5.808;2023-06-19T01:26:37;6.80;;;4.32;;
62582;SDS011;48641;51.676;5.808;2023-06-19T01:29:03;6.25;;;3.75;;
62582;SDS011;48641;51.676;5.808;2023-06-19T01:31:31;7.88;;;4.30;;
62582;SDS011;48641;51.676;5.808;2023-06-19T01:34:01;7.22;;;4.47;;
62582;SDS011;48641;51.676;5.808;2023-06-19T01:36:29;6.30;;;3.80;;
62582;SDS011;48641;51.676;5.808;2023-06-19T01:38:56;6.60;;;3.75;;
62582;SDS011;48641;51.676;5.808;2023-06-19T01:41:23;6.88;;;4.10;;
62582;SDS011;48641;51.676;5.808;2023-06-19T01:43:49;7.32;;;4.30;;
62582;SDS011;48641;51.676;5.808;2023-06-19T01:46:16;6.93;;;4.30;;
62582;SDS011;48641;51.676;5.808;2023-06-19T01:48:42;7.47;;;4.47;;
62582;SDS011;48641;51.676;5.808;2023-06-19T01:51:08;7.25;;;4.32;;
62582;SDS011;48641;51.676;5.808;2023-06-19T01:53:33;7.18;;;4.00;;
62582;SDS011;48641;51.676;5.808;2023-06-19T01:56:02;6.97;;;4.03;;
62582;SDS011;48641;51.676;5.808;2023-06-19T01:58:27;6.80;;;3.83;;
62582;SDS011;48641;51.676;5.808;2023-06-19T02:00:53;6.82;;;3.80;;
62582;SDS011;48641;51.676;5.808;2023-06-19T02:03:19;6.60;;;4.03;;
62582;SDS011;48641;51.676;5.808;2023-06-19T02:05:46;7.78;;;4.40;;
62582;SDS011;48641;51.676;5.808;2023-06-19T02:08:11;7.40;;;4.10;;
62582;SDS011;48641;51.676;5.808;2023-06-19T02:10:37;6.40;;;3.83;;
62582;SDS011;48641;51.676;5.808;2023-06-19T02:13:03;7.03;;;4.03;;
62582;SDS011;48641;51.676;5.808;2023-06-19T02:15:28;6.63;;;3.88;;
62582;SDS011;48641;51.676;5.808;2023-06-19T02:17:57;9.82;;;4.20;;
62582;SDS011;48641;51.676;5.808;2023-06-19T02:20:23;8.05;;;4.20;;
62582;SDS011;48641;51.676;5.808;2023-06-19T02:22:49;7.38;;;3.92;;
62582;SDS011;48641;51.676;5.808;2023-06-19T02:25:16;7.18;;;4.00;;
62582;SDS011;48641;51.676;5.808;2023-06-19T02:27:42;6.88;;;3.75;;
62582;SDS011;48641;51.676;5.808;2023-06-19T02:30:07;7.22;;;4.40;;
62582;SDS011;48641;51.676;5.808;2023-06-19T02:32:33;6.35;;;3.60;;
62582;SDS011;48641;51.676;5.808;2023-06-19T02:34:59;7.47;;;3.97;;
62582;SDS011;48641;51.676;5.808;2023-06-19T02:37:24;6.63;;;3.67;;
62582;SDS011;48641;51.676;5.808;2023-06-19T02:39:50;7.10;;;3.90;;
62582;SDS011;48641;51.676;5.808;2023-06-19T02:42:16;6.70;;;3.80;;
62582;SDS011;48641;51.676;5.808;2023-06-19T02:44:41;7.28;;;4.05;;
62582;SDS011;48641;51.676;5.808;2023-06-19T02:47:08;5.90;;;3.53;;
62582;SDS011;48641;51.676;5.808;2023-06-19T02:49:34;6.50;;;3.80;;
62582;SDS011;48641;51.676;5.808;2023-06-19T02:51:59;6.20;;;3.40;;
62582;SDS011;48641;51.676;5.808;2023-06-19T02:54:25;8.02;;;4.07;;
62582;SDS011;48641;51.676;5.808;2023-06-19T02:56:51;7.03;;;3.80;;
62582;SDS011;48641;51.676;5.808;2023-06-19T02:59:16;7.28;;;3.95;;
62582;SDS011;48641;51.676;5.808;2023-06-19T03:01:42;6.90;;;3.40;;
62582;SDS011;48641;51.676;5.808;2023-06-19T03:04:08;6.60;;;3.35;;
62582;SDS011;48641;51.676;5.808;2023-06-19T03:06:33;6.82;;;3.90;;
62582;SDS011;48641;51.676;5.808;2023-06-19T03:09:04;6.50;;;3.60;;
62582;SDS011;48641;51.676;5.808;2023-06-19T03:11:36;6.28;;;3.50;;
62582;SDS011;48641;51.676;5.808;2023-06-19T03:14:05;6.82;;;3.78;;
62582;SDS011;48641;51.676;5.808;2023-06-19T03:16:32;6.38;;;3.53;;
62582;SDS011;48641;51.676;5.808;2023-06-19T03:18:59;8.43;;;3.47;;
62582;SDS011;48641;51.676;5.808;2023-06-19T03:21:24;6.63;;;3.50;;
62582;SDS011;48641;51.676;5.808;2023-06-19T03:23:50;6.78;;;3.58;;
62582;SDS011;48641;51.676;5.808;2023-06-19T03:26:18;5.82;;;3.30;;
62582;SDS011;48641;51.676;5.808;2023-06-19T03:28:44;6.97;;;3.55;;
62582;SDS011;48641;51.676;5.808;2023-06-19T03:31:12;6.95;;;3.30;;
62582;SDS011;48641;51.676;5.808;2023-06-19T03:33:37;6.22;;;3.33;;
62582;SDS011;48641;51.676;5.808;2023-06-19T03:36:03;6.40;;;3.22;;
62582;SDS011;48641;51.676;5.808;2023-06-19T03:38:29;6.47;;;3.20;;
62582;SDS011;48641;51.676;5.808;2023-06-19T03:40:54;7.03;;;3.40;;
62582;SDS011;48641;51.676;5.808;2023-06-19T03:43:20;6.32;;;3.40;;
62582;SDS011;48641;51.676;5.808;2023-06-19T03:45:45;6.30;;;3.33;;
62582;SDS011;48641;51.676;5.808;2023-06-19T03:48:11;6.28;;;3.30;;
62582;SDS011;48641;51.676;5.808;2023-06-19T03:50:37;6.50;;;3.22;;
62582;SDS011;48641;51.676;5.808;2023-06-19T03:53:02;6.47;;;3.50;;
62582;SDS011;48641;51.676;5.808;2023-06-19T03:55:28;6.15;;;3.35;;
62582;SDS011;48641;51.676;5.808;2023-06-19T03:57:54;6.47;;;3.20;;
62582;SDS011;48641;51.676;5.808;2023-06-19T04:00:19;7.07;;;3.38;;
62582;SDS011;48641;51.676;5.808;2023-06-19T04:02:45;5.88;;;3.03;;
62582;SDS011;48641;51.676;5.808;2023-06-19T04:05:14;6.35;;;2.95;;
62582;SDS011;48641;51.676;5.808;2023-06-19T04:07:42;6.30;;;3.05;;
62582;SDS011;48641;51.676;5.808;2023-06-19T04:10:08;6.53;;;3.28;;
62582;SDS011;48641;51.676;5.808;2023-06-19T04:12:36;7.00;;;3.58;;
62582;SDS011;48641;51.676;5.808;2023-06-19T04:15:02;5.95;;;3.20;;
62582;SDS011;48641;51.676;5.808;2023-06-19T04:17:28;6.22;;;3.00;;
62582;SDS011;48641;51.676;5.808;2023-06-19T04:19:53;6.05;;;2.92;;
62582;SDS011;48641;51.676;5.808;2023-06-19T04:22:19;6.18;;;3.00;;
62582;SDS011;48641;51.676;5.808;2023-06-19T04:24:44;6.00;;;3.20;;
62582;SDS011;48641;51.676;5.808;2023-06-19T04:27:10;6.20;;;3.08;;
62582;SDS011;48641;51.676;5.808;2023-06-19T04:29:36;6.05;;;2.90;;
62582;SDS011;48641;51.676;5.808;2023-06-19T04:32:02;5.82;;;2.90;;
62582;SDS011;48641;51.676;5.808;2023-06-19T04:34:35;6.13;;;2.83;;
62582;SDS011;48641;51.676;5.808;2023-06-19T04:37:01;6.53;;;2.92;;
62582;SDS011;48641;51.676;5.808;2023-06-19T04:39:26;6.13;;;3.33;;
62582;SDS011;48641;51.676;5.808;2023-06-19T04:41:52;6.45;;;3.13;;
62582;SDS011;48641;51.676;5.808;2023-06-19T04:44:17;6.65;;;3.15;;
62582;SDS011;48641;51.676;5.808;2023-06-19T04:46:43;6.50;;;2.90;;
62582;SDS011;48641;51.676;5.808;2023-06-19T04:49:12;5.63;;;2.80;;
62582;SDS011;48641;51.676;5.808;2023-06-19T04:51:38;5.47;;;2.80;;
62582;SDS011;48641;51.676;5.808;2023-06-19T04:54:03;6.18;;;2.88;;
62582;SDS011;48641;51.676;5.808;2023-06-19T04:56:29;6.03;;;2.92;;
62582;SDS011;48641;51.676;5.808;2023-06-19T04:58:55;5.82;;;3.00;;
62582;SDS011;48641;51.676;5.808;2023-06-19T05:01:24;6.38;;;3.00;;
62582;SDS011;48641;51.676;5.808;2023-06-19T05:03:53;5.70;;;2.80;;
62582;SDS011;48641;51.676;5.808;2023-06-19T05:06:20;5.55;;;2.75;;
62582;SDS011;48641;51.676;5.808;2023-06-19T05:08:46;5.72;;;2.53;;
62582;SDS011;48641;51.676;5.808;2023-06-19T05:11:12;6.15;;;2.60;;
62582;SDS011;48641;51.676;5.808;2023-06-19T05:13:38;6.38;;;2.83;;
62582;SDS011;48641;51.676;5.808;2023-06-19T05:16:03;5.75;;;2.70;;
62582;SDS011;48641;51.676;5.808;2023-06-19T05:18:29;6.78;;;2.97;;
62582;SDS011;48641;51.676;5.808;2023-06-19T05:20:55;6.32;;;3.00;;
62582;SDS011;48641;51.676;5.808;2023-06-19T05:23:20;8.82;;;3.55;;
62582;SDS011;48641;51.676;5.808;2023-06-19T05:25:46;16.80;;;4.18;;
62582;SDS011;48641;51.676;5.808;2023-06-19T05:28:11;12.02;;;3.38;;
62582;SDS011;48641;51.676;5.808;2023-06-19T05:30:37;8.63;;;3.05;;
62582;SDS011;48641;51.676;5.808;2023-06-19T05:33:02;9.02;;;3.33;;
62582;SDS011;48641;51.676;5.808;2023-06-19T05:35:28;9.55;;;3.08;;
62582;SDS011;48641;51.676;5.808;2023-06-19T05:37:55;9.00;;;3.30;;
62582;SDS011;48641;51.676;5.808;2023-06-19T05:40:21;7.18;;;3.40;;
62582;SDS011;48641;51.676;5.808;2023-06-19T05:42:46;6.18;;;3.13;;
62582;SDS011;48641;51.676;5.808;2023-06-19T05:45:15;7.28;;;3.17;;
62582;SDS011;48641;51.676;5.808;2023-06-19T05:47:40;7.22;;;3.00;;
62582;SDS011;48641;51.676;5.808;2023-06-19T05:50:06;6.32;;;3.40;;
62582;SDS011;48641;51.676;5.808;2023-06-19T05:52:32;7.07;;;3.28;;
62582;SDS011;48641;51.676;5.808;2023-06-19T05:54:58;7.53;;;3.58;;
62582;SDS011;48641;51.676;5.808;2023-06-19T05:57:23;6.78;;;3.38;;
62582;SDS011;48641;51.676;5.808;2023-06-19T05:59:49;6.40;;;3.00;;
62582;SDS011;48641;51.676;5.808;2023-06-19T06:02:16;6.38;;;3.58;;
62582;SDS011;48641;51.676;5.808;2023-06-19T06:04:43;6.63;;;3.47;;
62582;SDS011;48641;51.676;5.808;2023-06-19T06:07:09;8.30;;;3.80;;
62582;SDS011;48641;51.676;5.808;2023-06-19T06:09:34;8.27;;;3.92;;
62582;SDS011;48641;51.676;5.808;2023-06-19T06:12:00;7.20;;;3.50;;
62582;SDS011;48641;51.676;5.808;2023-06-19T06:14:26;8.18;;;3.60;;
62582;SDS011;48641;51.676;5.808;2023-06-19T06:16:52;7.70;;;3.78;;
62582;SDS011;48641;51.676;5.808;2023-06-19T06:19:19;6.55;;;3.28;;
62582;SDS011;48641;51.676;5.808;2023-06-19T06:21:46;8.30;;;3.70;;
62582;SDS011;48641;51.676;5.808;2023-06-19T06:24:11;7.15;;;3.45;;
62582;SDS011;48641;51.676;5.808;2023-06-19T06:26:37;8.07;;;3.58;;
62582;SDS011;48641;51.676;5.808;2023-06-19T06:29:02;6.30;;;3.35;;
62582;SDS011;48641;51.676;5.808;2023-06-19T06:31:28;6.80;;;3.60;;
62582;SDS011;48641;51.676;5.808;2023-06-19T06:33:53;9.60;;;3.70;;
62582;SDS011;48641;51.676;5.808;2023-06-19T06:36:19;8.48;;;3.97;;
62582;SDS011;48641;51.676;5.808;2023-06-19T06:38:45;8.65;;;3.53;;
62582;SDS011;48641;51.676;5.808;2023-06-19T06:41:10;7.22;;;3.83;;
62582;SDS011;48641;51.676;5.808;2023-06-19T06:43:36;9.38;;;4.00;;
62582;SDS011;48641;51.676;5.808;2023-06-19T06:46:03;7.30;;;3.67;;
62582;SDS011;48641;51.676;5.808;2023-06-19T06:48:29;7.13;;;3.70;;
62582;SDS011;48641;51.676;5.808;2023-06-19T06:50:55;7.22;;;3.78;;
62582;SDS011;48641;51.676;5.808;2023-06-19T06:53:26;8.30;;;3.75;;
62582;SDS011;48641;51.676;5.808;2023-06-19T06:55:53;9.80;;;3.95;;
62582;SDS011;48641;51.676;5.808;2023-06-19T06:58:19;8.63;;;3.47;;
62582;SDS011;48641;51.676;5.808;2023-06-19T07:00:44;7.88;;;3.65;;
62582;SDS011;48641;51.676;5.808;2023-06-19T07:03:10;8.25;;;3.60;;
62582;SDS011;48641;51.676;5.808;2023-06-19T07:05:36;7.50;;;3.72;;
62582;SDS011;48641;51.676;5.808;2023-06-19T07:08:01;7.55;;;3.40;;
62582;SDS011;48641;51.676;5.808;2023-06-19T07:10:28;8.70;;;3.72;;
62582;SDS011;48641;51.676;5.808;2023-06-19T07:12:54;8.35;;;3.83;;
62582;SDS011;48641;51.676;5.808;2023-06-19T07:15:20;8.52;;;3.80;;
62582;SDS011;48641;51.676;5.808;2023-06-19T07:17:46;7.72;;;4.25;;
62582;SDS011;48641;51.676;5.808;2023-06-19T07:20:12;8.23;;;4.18;;
62582;SDS011;48641;51.676;5.808;2023-06-19T07:22:38;8.20;;;4.40;;
62582;SDS011;48641;51.676;5.808;2023-06-19T07:25:04;7.15;;;3.97;;
62582;SDS011;48641;51.676;5.808;2023-06-19T07:27:30;9.05;;;4.95;;
62582;SDS011;48641;51.676;5.808;2023-06-19T07:29:56;8.45;;;4.55;;
62582;SDS011;48641;51.676;5.808;2023-06-19T07:32:22;9.82;;;4.70;;
62582;SDS011;48641;51.676;5.808;2023-06-19T07:34:48;8.10;;;4.82;;
62582;SDS011;48641;51.676;5.808;2023-06-19T07:37:13;8.18;;;4.97;;
62582;SDS011;48641;51.676;5.808;2023-06-19T07:42:12;10.35;;;5.55;;
62582;SDS011;48641;51.676;5.808;2023-06-19T07:44:39;12.35;;;5.45;;
62582;SDS011;48641;51.676;5.808;2023-06-19T07:47:06;12.20;;;5.50;;
62582;SDS011;48641;51.676;5.808;2023-06-19T07:49:32;12.68;;;5.70;;
62582;SDS011;48641;51.676;5.808;2023-06-19T07:51:58;11.02;;;5.63;;
62582;SDS011;48641;51.676;5.808;2023-06-19T07:54:24;11.13;;;5.47;;
62582;SDS011;48641;51.676;5.808;2023-06-19T07:56:49;13.05;;;5.38;;
62582;SDS011;48641;51.676;5.808;2023-06-19T07:59:15;9.60;;;4.68;;
62582;SDS011;48641;51.676;5.808;2023-06-19T08:01:41;9.18;;;4.60;;
62582;SDS011;48641;51.676;5.808;2023-06-19T08:04:08;9.35;;;5.30;;
62582;SDS011;48641;51.676;5.808;2023-06-19T08:06:33;10.43;;;5.10;;
62582;SDS011;48641;51.676;5.808;2023-06-19T08:08:59;9.88;;;4.82;;
62582;SDS011;48641;51.676;5.808;2023-06-19T08:11:24;10.50;;;4.82;;
62582;SDS011;48641;51.676;5.808;2023-06-19T08:13:50;8.85;;;4.72;;
62582;SDS011;48641;51.676;5.808;2023-06-19T08:16:16;8.77;;;4.88;;
62582;SDS011;48641;51.676;5.808;2023-06-19T08:18:43;9.05;;;5.03;;
62582;SDS011;48641;51.676;5.808;2023-06-19T08:21:09;9.35;;;4.90;;
62582;SDS011;48641;51.676;5.808;2023-06-19T08:23:35;12.05;;;4.75;;
62582;SDS011;48641;51.676;5.808;2023-06-19T08:26:01;8.07;;;4.80;;
62582;SDS011;48641;51.676;5.808;2023-06-19T08:28:27;9.43;;;4.85;;
62582;SDS011;48641;51.676;5.808;2023-06-19T08:30:52;8.68;;;4.60;;
62582;SDS011;48641;51.676;5.808;2023-06-19T08:33:18;9.43;;;5.00;;
62582;SDS011;48641;51.676;5.808;2023-06-19T08:35:43;7.78;;;4.75;;
62582;SDS011;48641;51.676;5.808;2023-06-19T08:38:11;8.80;;;4.70;;
62582;SDS011;48641;51.676;5.808;2023-06-19T08:40:36;7.40;;;4.15;;
62582;SDS011;48641;51.676;5.808;2023-06-19T08:43:02;7.30;;;4.40;;
62582;SDS011;48641;51.676;5.808;2023-06-19T08:45:28;8.35;;;4.40;;
62582;SDS011;48641;51.676;5.808;2023-06-19T08:47:57;7.88;;;4.43;;
62582;SDS011;48641;51.676;5.808;2023-06-19T08:50:24;8.18;;;4.30;;
62582;SDS011;48641;51.676;5.808;2023-06-19T08:52:50;7.60;;;4.13;;
62582;SDS011;48641;51.676;5.808;2023-06-19T08:55:16;7.88;;;4.28;;
62582;SDS011;48641;51.676;5.808;2023-06-19T08:57:41;8.23;;;4.68;;
62582;SDS011;48641;51.676;5.808;2023-06-19T09:00:07;8.38;;;4.32;;
62582;SDS011;48641;51.676;5.808;2023-06-19T09:02:45;8.98;;;4.72;;
62582;SDS011;48641;51.676;5.808;2023-06-19T09:05:15;6.90;;;4.38;;
62582;SDS011;48641;51.676;5.808;2023-06-19T09:07:43;8.77;;;4.40;;
62582;SDS011;48641;51.676;5.808;2023-06-19T09:10:16;7.38;;;4.18;;
62582;SDS011;48641;51.676;5.808;2023-06-19T09:12:43;7.13;;;4.00;;
62582;SDS011;48641;51.676;5.808;2023-06-19T09:15:20;6.93;;;4.18;;
62582;SDS011;48641;51.676;5.808;2023-06-19T09:17:46;8.75;;;4.47;;
62582;SDS011;48641;51.676;5.808;2023-06-19T09:20:11;7.10;;;4.28;;
62582;SDS011;48641;51.676;5.808;2023-06-19T09:22:37;7.30;;;4.53;;
62582;SDS011;48641;51.676;5.808;2023-06-19T09:25:03;7.78;;;4.03;;
62582;SDS011;48641;51.676;5.808;2023-06-19T09:27:32;7.78;;;4.40;;
62582;SDS011;48641;51.676;5.808;2023-06-19T09:29:58;8.68;;;4.80;;
62582;SDS011;48641;51.676;5.808;2023-06-19T09:32:27;7.60;;;4.25;;
62582;SDS011;48641;51.676;5.808;2023-06-19T09:34:54;7.53;;;4.18;;
62582;SDS011;48641;51.676;5.808;2023-06-19T09:37:27;7.20;;;4.10;;
62582;SDS011;48641;51.676;5.808;2023-06-19T09:39:54;7.30;;;4.20;;
62582;SDS011;48641;51.676;5.808;2023-06-19T09:42:29;8.18;;;4.20;;
62582;SDS011;48641;51.676;5.808;2023-06-19T09:44:59;7.30;;;4.28;;
62582;SDS011;48641;51.676;5.808;2023-06-19T09:47:34;7.15;;;4.38;;
62582;SDS011;48641;51.676;5.808;2023-06-19T09:50:04;7.20;;;4.20;;
62582;SDS011;48641;51.676;5.808;2023-06-19T09:52:31;8.60;;;4.55;;
62582;SDS011;48641;51.676;5.808;2023-06-19T09:54:57;7.72;;;4.30;;
62582;SDS011;48641;51.676;5.808;2023-06-19T09:57:27;6.72;;;4.10;;
62582;SDS011;48641;51.676;5.808;2023-06-19T09:59:54;7.28;;;4.20;;
62582;SDS011;48641;51.676;5.808;2023-06-19T10:02:22;7.85;;;4.05;;
62582;SDS011;48641;51.676;5.808;2023-06-19T10:04:52;7.55;;;4.05;;
62582;SDS011;48641;51.676;5.808;2023-06-19T10:07:24;7.75;;;4.50;;
62582;SDS011;48641;51.676;5.808;2023-06-19T10:10:05;6.60;;;4.00;;
62582;SDS011;48641;51.676;5.808;2023-06-19T10:15:10;7.15;;;3.85;;
62582;SDS011;48641;51.676;5.808;2023-06-19T10:17:50;7.85;;;3.90;;
62582;SDS011;48641;51.676;5.808;2023-06-19T10:20:24;7.47;;;4.40;;
62582;SDS011;48641;51.676;5.808;2023-06-19T10:25:35;7.00;;;4.32;;
62582;SDS011;48641;51.676;5.808;2023-06-19T10:28:02;7.18;;;4.10;;
62582;SDS011;48641;51.676;5.808;2023-06-19T10:30:31;7.25;;;3.80;;
62582;SDS011;48641;51.676;5.808;2023-06-19T10:32:59;7.22;;;4.30;;
62582;SDS011;48641;51.676;5.808;2023-06-19T10:35:29;6.95;;;4.40;;
62582;SDS011;48641;51.676;5.808;2023-06-19T10:38:03;6.53;;;3.70;;
62582;SDS011;48641;51.676;5.808;2023-06-19T10:40:29;6.93;;;4.43;;
62582;SDS011;48641;51.676;5.808;2023-06-19T10:42:55;9.13;;;4.50;;
62582;SDS011;48641;51.676;5.808;2023-06-19T10:45:21;7.10;;;4.20;;
62582;SDS011;48641;51.676;5.808;2023-06-19T10:47:53;7.03;;;4.00;;
62582;SDS011;48641;51.676;5.808;2023-06-19T10:50:20;7.50;;;4.40;;
62582;SDS011;48641;51.676;5.808;2023-06-19T10:52:46;7.35;;;4.18;;
62582;SDS011;48641;51.676;5.808;2023-06-19T10:55:14;6.85;;;4.18;;
62582;SDS011;48641;51.676;5.808;2023-06-19T10:57:40;7.60;;;4.15;;
62582;SDS011;48641;51.676;5.808;2023-06-19T11:00:09;8.00;;;4.35;;
62582;SDS011;48641;51.676;5.808;2023-06-19T11:02:40;7.05;;;4.10;;
62582;SDS011;48641;51.676;5.808;2023-06-19T11:05:08;6.38;;;4.10;;
62582;SDS011;48641;51.676;5.808;2023-06-19T11:07:34;8.18;;;4.40;;
62582;SDS011;48641;51.676;5.808;2023-06-19T11:10:00;7.30;;;4.18;;
62582;SDS011;48641;51.676;5.808;2023-06-19T11:12:26;7.40;;;4.13;;
62582;SDS011;48641;51.676;5.808;2023-06-19T11:14:52;7.55;;;4.30;;
62582;SDS011;48641;51.676;5.808;2023-06-19T11:17:18;7.35;;;4.47;;
62582;SDS011;48641;51.676;5.808;2023-06-19T11:19:46;9.55;;;4.28;;
62582;SDS011;48641;51.676;5.808;2023-06-19T11:22:11;7.13;;;3.80;;
62582;SDS011;48641;51.676;5.808;2023-06-19T11:24:42;7.00;;;4.13;;
62582;SDS011;48641;51.676;5.808;2023-06-19T11:27:13;6.53;;;3.80;;
62582;SDS011;48641;51.676;5.808;2023-06-19T11:29:54;7.00;;;4.03;;
62582;SDS011;48641;51.676;5.808;2023-06-19T11:32:21;7.95;;;4.03;;
62582;SDS011;48641;51.676;5.808;2023-06-19T11:34:49;6.60;;;3.80;;
62582;SDS011;48641;51.676;5.808;2023-06-19T11:37:18;7.43;;;3.90;;
62582;SDS011;48641;51.676;5.808;2023-06-19T11:39:47;6.60;;;3.75;;
62582;SDS011;48641;51.676;5.808;2023-06-19T11:42:14;7.60;;;3.90;;
62582;SDS011;48641;51.676;5.808;2023-06-19T11:49:49;7.28;;;3.95;;
62582;SDS011;48641;51.676;5.808;2023-06-19T11:52:16;6.55;;;3.80;;
62582;SDS011;48641;51.676;5.808;2023-06-19T11:54:41;7.18;;;4.10;;
62582;SDS011;48641;51.676;5.808;2023-06-19T11:57:09;6.80;;;3.92;;
62582;SDS011;48641;51.676;5.808;2023-06-19T11:59:40;6.57;;;3.75;;
62582;SDS011;48641;51.676;5.808;2023-06-19T12:02:07;6.72;;;3.80;;
62582;SDS011;48641;51.676;5.808;2023-06-19T12:04:33;7.43;;;4.30;;
62582;SDS011;48641;51.676;5.808;2023-06-19T12:07:00;6.53;;;3.67;;
62582;SDS011;48641;51.676;5.808;2023-06-19T12:09:27;6.78;;;3.80;;
62582;SDS011;48641;51.676;5.808;2023-06-19T12:11:53;6.88;;;3.88;;
62582;SDS011;48641;51.676;5.808;2023-06-19T12:14:18;6.63;;;3.85;;
62582;SDS011;48641;51.676;5.808;2023-06-19T12:16:45;6.68;;;3.67;;
62582;SDS011;48641;51.676;5.808;2023-06-19T12:19:11;6.55;;;3.80;;
62582;SDS011;48641;51.676;5.808;2023-06-19T12:21:37;6.75;;;3.70;;
62582;SDS011;48641;51.676;5.808;2023-06-19T12:24:02;6.68;;;3.90;;
62582;SDS011;48641;51.676;5.808;2023-06-19T12:26:29;6.93;;;4.10;;
62582;SDS011;48641;51.676;5.808;2023-06-19T12:28:55;7.10;;;4.20;;
62582;SDS011;48641;51.676;5.808;2023-06-19T12:31:20;7.68;;;4.00;;
62582;SDS011;48641;51.676;5.808;2023-06-19T12:33:46;6.60;;;3.90;;
62582;SDS011;48641;51.676;5.808;2023-06-19T12:36:14;6.65;;;3.72;;
62582;SDS011;48641;51.676;5.808;2023-06-19T12:38:40;7.40;;;4.00;;
62582;SDS011;48641;51.676;5.808;2023-06-19T12:41:06;6.38;;;3.95;;
62582;SDS011;48641;51.676;5.808;2023-06-19T12:43:32;7.30;;;3.92;;
62582;SDS011;48641;51.676;5.808;2023-06-19T12:45:58;6.75;;;3.50;;
62582;SDS011;48641;51.676;5.808;2023-06-19T12:48:24;6.55;;;3.55;;
62582;SDS011;48641;51.676;5.808;2023-06-19T12:50:50;7.00;;;3.80;;
62582;SDS011;48641;51.676;5.808;2023-06-19T12:53:19;6.50;;;3.70;;
62582;SDS011;48641;51.676;5.808;2023-06-19T12:55:46;6.35;;;3.58;;
62582;SDS011;48641;51.676;5.808;2023-06-19T12:58:12;7.22;;;4.10;;
62582;SDS011;48641;51.676;5.808;2023-06-19T13:00:37;6.38;;;3.70;;
62582;SDS011;48641;51.676;5.808;2023-06-19T13:03:03;6.25;;;3.78;;
62582;SDS011;48641;51.676;5.808;2023-06-19T13:05:28;6.43;;;3.58;;
62582;SDS011;48641;51.676;5.808;2023-06-19T13:07:54;6.88;;;3.97;;
62582;SDS011;48641;51.676;5.808;2023-06-19T13:10:20;7.53;;;4.43;;
62582;SDS011;48641;51.676;5.808;2023-06-19T13:12:45;6.80;;;3.88;;
62582;SDS011;48641;51.676;5.808;2023-06-19T13:15:11;7.00;;;3.92;;
62582;SDS011;48641;51.676;5.808;2023-06-19T13:17:37;6.32;;;3.65;;
62582;SDS011;48641;51.676;5.808;2023-06-19T13:20:03;6.47;;;3.85;;
62582;SDS011;48641;51.676;5.808;2023-06-19T13:22:30;6.55;;;3.78;;
62582;SDS011;48641;51.676;5.808;2023-06-19T13:24:56;6.93;;;3.80;;
62582;SDS011;48641;51.676;5.808;2023-06-19T13:27:21;6.93;;;4.10;;
62582;SDS011;48641;51.676;5.808;2023-06-19T13:29:47;6.80;;;3.65;;
62582;SDS011;48641;51.676;5.808;2023-06-19T13:32:13;7.05;;;3.65;;
62582;SDS011;48641;51.676;5.808;2023-06-19T13:34:38;7.05;;;4.03;;
62582;SDS011;48641;51.676;5.808;2023-06-19T13:37:04;6.85;;;3.70;;
62582;SDS011;48641;51.676;5.808;2023-06-19T13:39:29;6.28;;;3.65;;
62582;SDS011;48641;51.676;5.808;2023-06-19T13:41:55;7.70;;;3.88;;
62582;SDS011;48641;51.676;5.808;2023-06-19T13:44:21;7.05;;;3.70;;
62582;SDS011;48641;51.676;5.808;2023-06-19T13:46:46;7.10;;;3.88;;
62582;SDS011;48641;51.676;5.808;2023-06-19T13:49:12;7.07;;;3.80;;
62582;SDS011;48641;51.676;5.808;2023-06-19T13:51:39;8.07;;;3.72;;
62582;SDS011;48641;51.676;5.808;2023-06-19T13:54:04;6.85;;;4.00;;
62582;SDS011;48641;51.676;5.808;2023-06-19T13:56:30;6.78;;;3.85;;
62582;SDS011;48641;51.676;5.808;2023-06-19T13:58:57;7.20;;;3.78;;
62582;SDS011;48641;51.676;5.808;2023-06-19T14:01:23;7.10;;;4.10;;
62582;SDS011;48641;51.676;5.808;2023-06-19T14:03:50;7.47;;;3.88;;
62582;SDS011;48641;51.676;5.808;2023-06-19T14:06:16;6.40;;;3.72;;
62582;SDS011;48641;51.676;5.808;2023-06-19T14:08:42;7.00;;;3.75;;
62582;SDS011;48641;51.676;5.808;2023-06-19T14:11:08;6.60;;;3.78;;
62582;SDS011;48641;51.676;5.808;2023-06-19T14:13:34;6.20;;;3.40;;
62582;SDS011;48641;51.676;5.808;2023-06-19T14:16:00;6.88;;;3.80;;
62582;SDS011;48641;51.676;5.808;2023-06-19T14:18:26;6.93;;;3.53;;
62582;SDS011;48641;51.676;5.808;2023-06-19T14:20:52;6.60;;;3.60;;
62582;SDS011;48641;51.676;5.808;2023-06-19T14:23:17;6.15;;;3.35;;
62582;SDS011;48641;51.676;5.808;2023-06-19T14:25:43;6.47;;;3.50;;
62582;SDS011;48641;51.676;5.808;2023-06-19T14:28:08;7.38;;;3.47;;
62582;SDS011;48641;51.676;5.808;2023-06-19T14:30:34;6.25;;;3.30;;
62582;SDS011;48641;51.676;5.808;2023-06-19T14:33:00;7.13;;;3.70;;
62582;SDS011;48641;51.676;5.808;2023-06-19T14:35:26;6.88;;;3.67;;
62582;SDS011;48641;51.676;5.808;2023-06-19T14:37:52;6.82;;;3.70;;
62582;SDS011;48641;51.676;5.808;2023-06-19T14:40:17;6.70;;;3.55;;
62582;SDS011;48641;51.676;5.808;2023-06-19T14:42:43;6.30;;;3.47;;
62582;SDS011;48641;51.676;5.808;2023-06-19T14:45:09;6.93;;;3.63;;
62582;SDS011;48641;51.676;5.808;2023-06-19T14:47:35;7.35;;;3.85;;
62582;SDS011;48641;51.676;5.808;2023-06-19T14:50:00;6.28;;;3.83;;
62582;SDS011;48641;51.676;5.808;2023-06-19T14:52:26;6.65;;;3.50;;
62582;SDS011;48641;51.676;5.808;2023-06-19T14:54:52;6.70;;;3.58;;
62582;SDS011;48641;51.676;5.808;2023-06-19T14:57:17;7.18;;;3.78;;